createdAt,value
2023-11-24T00:00:42.547Z,14.76
2023-11-24T00:03:11.693Z,14.73
2023-11-24T00:05:41.821Z,14.72
2023-11-24T00:08:11.063Z,14.71
2023-11-24T00:10:41.212Z,14.70
2023-11-24T00:13:10.298Z,14.67
2023-11-24T00:15:39.157Z,14.66
2023-11-24T00:18:09.365Z,14.66
2023-11-24T00:20:38.958Z,14.64
2023-11-24T00:23:07.097Z,14.62
2023-11-24T00:25:36.973Z,14.60
2023-11-24T00:28:05.835Z,14.58
2023-11-24T00:30:34.420Z,14.58
2023-11-24T00:33:03.226Z,14.54
2023-11-24T00:35:34.016Z,14.54
2023-11-24T00:38:10.385Z,14.54
2023-11-24T00:40:41.916Z,14.53
2023-11-24T00:43:11.057Z,14.50
2023-11-24T00:45:39.443Z,14.52
2023-11-24T00:48:13.346Z,14.49
2023-11-24T00:50:43.612Z,14.49
2023-11-24T00:53:13.215Z,14.48
2023-11-24T00:55:41.204Z,14.46
2023-11-24T00:58:09.850Z,14.46
2023-11-24T01:00:39.757Z,14.43
2023-11-24T01:03:09.179Z,14.42
2023-11-24T01:05:38.266Z,14.41
2023-11-24T01:08:06.403Z,14.42
2023-11-24T01:10:36.784Z,14.41
2023-11-24T01:13:04.885Z,14.40
2023-11-24T01:15:32.813Z,14.39
2023-11-24T01:18:01.412Z,14.38
2023-11-24T01:20:29.061Z,14.38
2023-11-24T01:22:57.562Z,14.35
2023-11-24T01:25:25.350Z,14.35
2023-11-24T01:27:54.354Z,14.33
2023-11-24T01:30:22.166Z,14.32
2023-11-24T01:32:49.898Z,14.32
2023-11-24T01:35:17.811Z,14.31
2023-11-24T01:37:45.516Z,14.30
2023-11-24T01:40:13.719Z,14.30
2023-11-24T01:42:41.415Z,14.27
2023-11-24T01:45:11.925Z,14.27
2023-11-24T01:47:39.892Z,14.28
2023-11-24T01:50:09.710Z,14.26
2023-11-24T01:52:38.182Z,14.25
2023-11-24T01:55:07.343Z,14.24
2023-11-24T01:57:35.986Z,14.23
2023-11-24T02:00:05.535Z,14.21
2023-11-24T02:02:34.646Z,14.22
2023-11-24T02:05:02.809Z,14.21
2023-11-24T02:07:31.727Z,14.23
2023-11-24T02:10:00.223Z,14.21
2023-11-24T02:12:28.436Z,14.20
2023-11-24T02:14:56.182Z,14.20
2023-11-24T02:17:25.371Z,14.21
2023-11-24T02:19:59.202Z,14.19
2023-11-24T02:22:27.776Z,14.17
2023-11-24T02:24:57.122Z,14.17
2023-11-24T02:27:25.739Z,14.15
2023-11-24T02:29:53.521Z,14.16
2023-11-24T02:32:22.159Z,14.14
2023-11-24T02:34:49.965Z,14.14
2023-11-24T02:37:19.158Z,14.14
2023-11-24T02:39:50.042Z,14.13
2023-11-24T02:42:23.700Z,14.12
2023-11-24T02:44:52.279Z,14.11
2023-11-24T02:47:20.295Z,14.11
2023-11-24T02:49:50.160Z,14.10
2023-11-24T02:52:18.159Z,14.08
2023-11-24T02:54:46.417Z,14.06
2023-11-24T02:57:17.190Z,14.05
2023-11-24T02:59:48.566Z,14.04
2023-11-24T03:02:17.658Z,14.03
2023-11-24T03:04:49.422Z,14.02
2023-11-24T03:07:18.973Z,14.03
2023-11-24T03:09:47.128Z,14.01
2023-11-24T03:12:15.742Z,14.02
2023-11-24T03:14:50.639Z,14.02
2023-11-24T03:17:23.835Z,14.03
2023-11-24T03:19:51.826Z,14.01
2023-11-24T03:22:19.662Z,14.01
2023-11-24T03:24:48.277Z,14.01
2023-11-24T03:27:18.991Z,13.99
2023-11-24T03:29:49.206Z,13.98
2023-11-24T03:32:16.902Z,13.97
2023-11-24T03:34:44.619Z,13.95
2023-11-24T03:37:12.335Z,13.95
2023-11-24T03:39:40.406Z,13.94
2023-11-24T03:42:11.277Z,13.94
2023-11-24T03:44:40.105Z,13.94
2023-11-24T03:47:09.456Z,13.94
2023-11-24T03:49:40.813Z,13.96
2023-11-24T03:52:08.889Z,13.94
2023-11-24T03:54:37.705Z,13.94
2023-11-24T03:57:06.402Z,13.91
2023-11-24T03:59:35.027Z,13.91
2023-11-24T04:02:03.063Z,13.90
2023-11-24T04:04:32.658Z,13.90
2023-11-24T04:07:01.921Z,13.88
2023-11-24T04:09:32.137Z,13.88
2023-11-24T04:12:00.958Z,13.88
2023-11-24T04:14:30.275Z,13.86
2023-11-24T04:17:01.198Z,13.85
2023-11-24T04:19:31.806Z,13.84
2023-11-24T04:22:01.259Z,13.83
2023-11-24T04:24:29.327Z,13.81
2023-11-24T04:26:58.737Z,13.81
2023-11-24T04:29:26.745Z,13.81
2023-11-24T04:31:55.946Z,13.78
2023-11-24T04:34:32.946Z,13.77
2023-11-24T04:37:04.147Z,13.76
2023-11-24T04:39:32.619Z,13.77
2023-11-24T04:42:01.597Z,13.76
2023-11-24T04:44:29.395Z,13.75
2023-11-24T04:46:57.673Z,13.75
2023-11-24T04:49:25.690Z,13.73
2023-11-24T04:51:54.903Z,13.72
2023-11-24T04:54:24.281Z,13.70
2023-11-24T04:56:52.285Z,13.67
2023-11-24T04:59:22.845Z,13.68
2023-11-24T05:01:51.663Z,13.67
2023-11-24T05:04:19.689Z,13.66
2023-11-24T05:06:47.560Z,13.64
2023-11-24T05:09:17.986Z,13.63
2023-11-24T05:11:50.930Z,13.61
2023-11-24T05:14:18.760Z,13.60
2023-11-24T05:16:47.591Z,13.59
2023-11-24T05:19:16.049Z,13.59
2023-11-24T05:21:44.292Z,13.58
2023-11-24T05:24:20.813Z,13.58
2023-11-24T05:26:50.883Z,13.55
2023-11-24T05:29:19.047Z,13.55
2023-11-24T05:31:51.344Z,13.54
2023-11-24T05:34:21.053Z,13.51
2023-11-24T05:36:51.502Z,13.50
2023-11-24T05:39:22.216Z,13.50
2023-11-24T05:41:54.924Z,13.49
2023-11-24T05:44:22.980Z,13.49
2023-11-24T05:46:51.042Z,13.47
2023-11-24T05:49:18.803Z,13.47
2023-11-24T05:51:46.716Z,13.46
2023-11-24T05:54:14.444Z,13.45
2023-11-24T05:56:42.090Z,13.47
2023-11-24T05:59:11.129Z,13.46
2023-11-24T06:01:38.903Z,13.45
2023-11-24T06:04:07.325Z,13.45
2023-11-24T06:06:36.394Z,13.45
2023-11-24T06:09:04.433Z,13.45
2023-11-24T06:11:32.024Z,13.43
2023-11-24T06:13:59.761Z,13.44
2023-11-24T06:16:28.751Z,13.42
2023-11-24T06:18:57.722Z,13.41
2023-11-24T06:21:26.728Z,13.41
2023-11-24T06:23:54.381Z,13.40
2023-11-24T06:26:22.082Z,13.39
2023-11-24T06:28:49.956Z,13.38
2023-11-24T06:31:18.024Z,13.38
2023-11-24T06:33:47.145Z,13.37
2023-11-24T06:36:15.004Z,13.37
2023-11-24T06:38:42.714Z,13.37
2023-11-24T06:41:10.527Z,13.36
2023-11-24T06:43:38.112Z,13.37
2023-11-24T06:46:06.959Z,13.37
2023-11-24T06:48:36.144Z,13.36
2023-11-24T06:51:06.087Z,13.36
2023-11-24T06:53:33.812Z,13.36
2023-11-24T06:56:01.519Z,13.36
2023-11-24T06:58:29.248Z,13.34
2023-11-24T07:00:57.981Z,13.34
2023-11-24T07:03:27.387Z,13.35
2023-11-24T07:05:55.162Z,13.35
2023-11-24T07:08:24.295Z,13.33
2023-11-24T07:10:52.174Z,13.33
2023-11-24T07:13:19.924Z,13.34
2023-11-24T07:15:48.970Z,13.32
2023-11-24T07:18:16.783Z,13.32
2023-11-24T07:20:48.426Z,13.31
2023-11-24T07:23:17.564Z,13.31
2023-11-24T07:25:49.559Z,13.31
2023-11-24T07:28:18.247Z,13.31
2023-11-24T07:30:47.153Z,13.30
2023-11-24T07:33:15.092Z,13.31
2023-11-24T07:35:42.807Z,13.31
2023-11-24T07:38:11.418Z,13.31
2023-11-24T07:40:40.605Z,13.31
2023-11-24T07:43:09.754Z,13.32
2023-11-24T07:45:38.425Z,13.33
2023-11-24T07:48:06.715Z,13.34
2023-11-24T07:50:34.900Z,13.35
2023-11-24T07:53:02.600Z,13.33
2023-11-24T07:55:32.580Z,13.32
2023-11-24T07:58:01.392Z,13.32
2023-11-24T08:00:31.872Z,13.31
2023-11-24T08:02:59.613Z,13.32
2023-11-24T08:05:27.343Z,13.33
2023-11-24T08:07:56.415Z,13.34
2023-11-24T08:10:25.564Z,13.37
2023-11-24T08:12:55.497Z,13.42
2023-11-24T08:15:23.793Z,13.44
2023-11-24T08:17:52.872Z,13.46
2023-11-24T08:20:22.084Z,13.48
2023-11-24T08:22:52.223Z,13.47
2023-11-24T08:25:22.954Z,13.45
2023-11-24T08:27:50.658Z,13.45
2023-11-24T08:30:19.217Z,13.46
2023-11-24T08:32:50.552Z,13.50
2023-11-24T08:35:25.091Z,13.51
2023-11-24T08:37:53.876Z,13.52
2023-11-24T08:40:23.004Z,13.52
2023-11-24T08:42:51.368Z,13.50
2023-11-24T08:45:23.559Z,13.50
2023-11-24T08:47:51.380Z,13.52
2023-11-24T08:50:20.330Z,13.57
2023-11-24T08:52:53.409Z,13.60
2023-11-24T08:55:22.227Z,13.55
2023-11-24T08:57:52.529Z,13.55
2023-11-24T09:00:20.966Z,13.52
2023-11-24T09:02:50.995Z,13.57
2023-11-24T09:05:18.946Z,13.64
2023-11-24T09:07:46.992Z,13.63
2023-11-24T09:10:19.710Z,13.61
2023-11-24T09:12:51.319Z,13.56
2023-11-24T09:15:21.580Z,13.53
2023-11-24T09:17:50.045Z,13.51
2023-11-24T09:20:18.515Z,13.47
2023-11-24T09:22:46.429Z,13.44
2023-11-24T09:25:16.960Z,13.44
2023-11-24T09:27:45.529Z,13.49
2023-11-24T09:30:13.846Z,13.58
2023-11-24T09:32:44.019Z,13.54
2023-11-24T09:35:12.221Z,13.51
2023-11-24T09:37:40.053Z,13.48
2023-11-24T09:40:14.691Z,13.49
2023-11-24T09:42:46.097Z,13.46
2023-11-24T09:45:17.603Z,13.43
2023-11-24T09:47:50.035Z,13.41
2023-11-24T09:50:24.573Z,13.36
2023-11-24T09:52:55.817Z,13.39
2023-11-24T09:55:26.417Z,13.40
2023-11-24T09:57:58.378Z,13.37
2023-11-24T10:00:28.602Z,13.31
2023-11-24T10:02:59.828Z,13.30
2023-11-24T10:05:28.053Z,13.31
2023-11-24T10:07:57.601Z,13.31
2023-11-24T10:10:27.439Z,13.27
2023-11-24T10:13:01.014Z,13.28
2023-11-24T10:15:29.631Z,13.24
2023-11-24T10:17:58.192Z,13.28
2023-11-24T10:20:31.332Z,13.28
2023-11-24T10:23:00.740Z,13.28
2023-11-24T10:25:29.682Z,13.25
2023-11-24T10:27:59.976Z,13.26
2023-11-24T10:30:27.806Z,13.29
2023-11-24T10:32:55.746Z,13.29
2023-11-24T10:35:23.683Z,13.28
2023-11-24T10:37:51.817Z,13.29
2023-11-24T10:40:20.011Z,13.31
2023-11-24T10:42:51.591Z,13.29
2023-11-24T10:45:22.794Z,13.30
2023-11-24T10:48:01.357Z,13.27
2023-11-24T10:50:30.502Z,13.28
2023-11-24T10:53:08.775Z,13.26
2023-11-24T10:55:38.866Z,13.27
2023-11-24T10:58:08.041Z,13.26
2023-11-24T11:00:38.779Z,13.26
2023-11-24T11:03:07.573Z,13.26
2023-11-24T11:05:47.757Z,13.25
2023-11-24T11:08:21.797Z,13.24
2023-11-24T11:11:16.915Z,13.22
2023-11-24T11:13:45.753Z,13.22
2023-11-24T11:16:15.206Z,13.19
2023-11-24T11:18:43.016Z,13.22
2023-11-24T11:21:12.552Z,13.20
2023-11-24T11:23:40.944Z,13.19
2023-11-24T11:26:09.554Z,13.19
2023-11-24T11:28:38.160Z,13.17
2023-11-24T11:31:34.523Z,13.17
2023-11-24T11:34:19.357Z,13.19
2023-11-24T11:37:02.528Z,13.19
2023-11-24T11:39:35.913Z,13.24
2023-11-24T11:42:03.749Z,13.28
2023-11-24T11:44:35.975Z,13.35
2023-11-24T11:47:21.187Z,13.45
2023-11-24T11:49:52.756Z,13.48
2023-11-24T11:52:21.349Z,13.51
2023-11-24T11:54:50.974Z,13.54
2023-11-24T11:57:20.141Z,13.55
2023-11-24T11:59:48.530Z,13.57
2023-11-24T12:02:22.047Z,13.59
2023-11-24T12:04:50.387Z,13.63
2023-11-24T12:07:20.062Z,13.65
2023-11-24T12:09:48.800Z,13.69
2023-11-24T12:12:16.817Z,13.72
2023-11-24T12:14:44.887Z,13.72
2023-11-24T12:17:13.476Z,13.83
2023-11-24T12:19:44.170Z,13.90
2023-11-24T12:22:12.473Z,13.85
2023-11-24T12:24:42.130Z,13.89
2023-11-24T12:27:10.519Z,13.90
2023-11-24T12:29:42.366Z,13.88
2023-11-24T12:32:12.548Z,13.94
2023-11-24T12:34:47.320Z,14.00
2023-11-24T12:37:15.395Z,13.97
2023-11-24T12:39:43.285Z,13.98
2023-11-24T12:42:12.020Z,13.98
2023-11-24T12:44:41.215Z,13.98
2023-11-24T12:47:14.793Z,13.99
2023-11-24T12:50:00.734Z,14.00
2023-11-24T12:52:33.016Z,14.02
2023-11-24T12:55:02.818Z,14.02
2023-11-24T12:57:30.741Z,14.02
2023-11-24T13:00:14.236Z,14.07
2023-11-24T13:02:44.568Z,14.15
2023-11-24T13:05:17.921Z,14.17
2023-11-24T13:07:46.570Z,14.17
2023-11-24T13:10:14.633Z,14.12
2023-11-24T13:12:43.456Z,14.17
2023-11-24T13:15:12.105Z,14.25
2023-11-24T13:17:41.224Z,14.33
2023-11-24T13:20:12.095Z,14.41
2023-11-24T13:22:45.123Z,14.43
2023-11-24T13:25:13.627Z,14.36
2023-11-24T13:27:43.473Z,14.35
2023-11-24T13:30:14.100Z,14.31
2023-11-24T13:32:45.449Z,14.28
2023-11-24T13:35:19.546Z,14.27
2023-11-24T13:37:51.058Z,14.27
2023-11-24T13:40:21.932Z,14.27
2023-11-24T13:42:50.509Z,14.25
2023-11-24T13:45:22.091Z,14.33
2023-11-24T13:47:51.517Z,14.36
2023-11-24T13:50:20.741Z,14.35
2023-11-24T13:52:57.606Z,14.31
2023-11-24T13:55:34.756Z,14.24
2023-11-24T13:58:04.043Z,14.21
2023-11-24T14:00:32.362Z,14.18
2023-11-24T14:03:00.414Z,14.19
2023-11-24T14:05:28.279Z,14.15
2023-11-24T14:07:58.542Z,14.15
2023-11-24T14:10:27.591Z,14.15
2023-11-24T14:12:55.362Z,14.14
2023-11-24T14:15:24.442Z,14.12
2023-11-24T14:17:52.298Z,14.12
2023-11-24T14:20:21.285Z,14.13
2023-11-24T14:22:49.281Z,14.13
2023-11-24T14:25:18.429Z,14.13
2023-11-24T14:27:46.235Z,14.10
2023-11-24T14:30:15.672Z,14.10
2023-11-24T14:32:43.674Z,14.10
2023-11-24T14:35:13.055Z,14.14
2023-11-24T14:37:41.082Z,14.10
2023-11-24T14:40:20.044Z,14.13
2023-11-24T14:42:51.566Z,14.21
2023-11-24T14:45:21.289Z,14.28
2023-11-24T14:47:50.705Z,14.40
2023-11-24T14:50:20.579Z,14.55
2023-11-24T14:52:48.682Z,14.66
2023-11-24T14:55:17.958Z,14.75
2023-11-24T14:57:46.794Z,14.86
2023-11-24T15:00:30.478Z,14.95
2023-11-24T15:03:02.289Z,15.05
2023-11-24T15:05:32.495Z,15.12
2023-11-24T15:08:08.042Z,15.18
2023-11-24T15:10:37.411Z,15.27
2023-11-24T15:13:10.001Z,15.32
2023-11-24T15:15:41.099Z,15.41
2023-11-24T15:18:09.889Z,15.48
2023-11-24T15:20:45.959Z,15.56
2023-11-24T15:23:25.650Z,15.57
2023-11-24T15:26:06.230Z,15.63
2023-11-24T15:28:34.692Z,15.65
2023-11-24T15:31:07.194Z,15.66
2023-11-24T15:33:42.770Z,15.69
2023-11-24T15:36:11.599Z,15.69
2023-11-24T15:38:39.356Z,15.72
2023-11-24T15:41:07.552Z,15.75
2023-11-24T15:43:36.574Z,15.76
2023-11-24T15:46:06.240Z,15.75
2023-11-24T15:48:34.345Z,15.72
2023-11-24T15:51:04.610Z,15.68
2023-11-24T15:53:33.246Z,15.65
2023-11-24T15:56:01.080Z,15.64
2023-11-24T15:58:29.194Z,15.60
2023-11-24T16:00:58.349Z,15.59
2023-11-24T16:03:27.676Z,15.57
2023-11-24T16:05:58.970Z,15.57
2023-11-24T16:08:33.733Z,15.57
2023-11-24T16:11:09.846Z,15.54
2023-11-24T16:13:41.943Z,15.52
2023-11-24T16:16:09.824Z,15.51
2023-11-24T16:18:41.223Z,15.52
2023-11-24T16:21:08.992Z,15.52
2023-11-24T16:23:36.889Z,15.45
2023-11-24T16:26:05.814Z,15.46
2023-11-24T16:28:34.131Z,15.46
2023-11-24T16:31:01.849Z,15.45
2023-11-24T16:33:29.998Z,15.45
2023-11-24T16:36:00.883Z,15.47
2023-11-24T16:38:29.486Z,15.48
2023-11-24T16:40:57.266Z,15.49
2023-11-24T16:43:25.040Z,15.48
2023-11-24T16:45:52.776Z,15.46
2023-11-24T16:48:20.760Z,15.45
2023-11-24T16:50:48.456Z,15.44
2023-11-24T16:53:17.495Z,15.41
2023-11-24T16:55:48.098Z,15.41
2023-11-24T16:58:16.002Z,15.40
2023-11-24T17:00:44.521Z,15.38
2023-11-24T17:03:12.747Z,15.36
2023-11-24T17:05:40.501Z,15.35
2023-11-24T17:08:10.832Z,15.34
2023-11-24T17:10:40.090Z,15.36
2023-11-24T17:13:07.814Z,15.42
2023-11-24T17:15:35.609Z,15.45
2023-11-24T17:18:05.936Z,15.47
2023-11-24T17:20:34.129Z,15.48
2023-11-24T17:23:01.794Z,15.49
2023-11-24T17:25:36.548Z,15.49
2023-11-24T17:28:06.955Z,15.48
2023-11-24T17:30:35.019Z,15.49
2023-11-24T17:33:02.819Z,15.49
2023-11-24T17:35:30.655Z,15.48
2023-11-24T17:37:59.480Z,15.46
2023-11-24T17:40:27.783Z,15.47
2023-11-24T17:42:55.739Z,15.47
2023-11-24T17:45:24.861Z,15.45
2023-11-24T17:47:54.597Z,15.43
2023-11-24T17:50:24.384Z,15.44
2023-11-24T17:52:52.366Z,15.41
2023-11-24T17:55:21.186Z,15.40
2023-11-24T17:57:49.639Z,15.39
2023-11-24T18:00:21.923Z,15.40
2023-11-24T18:02:51.400Z,15.41
2023-11-24T18:05:19.537Z,15.39
2023-11-24T18:07:47.343Z,15.37
2023-11-24T18:10:15.366Z,15.35
2023-11-24T18:12:43.171Z,15.33
2023-11-24T18:15:14.664Z,15.34
2023-11-24T18:17:42.696Z,15.36
2023-11-24T18:20:15.571Z,15.36
2023-11-24T18:22:43.623Z,15.35
2023-11-24T18:25:13.266Z,15.34
2023-11-24T18:27:41.248Z,15.33
2023-11-24T18:30:10.954Z,15.30
2023-11-24T18:32:40.089Z,15.31
2023-11-24T18:35:09.576Z,15.31
2023-11-24T18:37:39.101Z,15.31
2023-11-24T18:40:09.442Z,15.27
2023-11-24T18:42:38.390Z,15.26
2023-11-24T18:45:07.998Z,15.26
2023-11-24T18:47:35.807Z,15.32
2023-11-24T18:50:07.074Z,15.36
2023-11-24T18:52:35.836Z,15.34
2023-11-24T18:55:06.716Z,15.29
2023-11-24T18:57:36.030Z,15.23
2023-11-24T19:00:05.149Z,15.17
2023-11-24T19:02:34.354Z,15.13
2023-11-24T19:05:02.379Z,15.10
2023-11-24T19:07:30.252Z,15.08
2023-11-24T19:09:58.663Z,15.06
2023-11-24T19:12:27.803Z,15.05
2023-11-24T19:14:55.615Z,14.98
2023-11-24T19:17:23.382Z,14.98
2023-11-24T19:19:51.101Z,14.98
2023-11-24T19:22:19.288Z,14.97
2023-11-24T19:24:47.035Z,14.96
2023-11-24T19:27:14.999Z,14.92
2023-11-24T19:29:44.075Z,14.89
2023-11-24T19:32:11.898Z,14.86
2023-11-24T19:34:39.663Z,14.85
2023-11-24T19:37:08.123Z,14.82
2023-11-24T19:39:38.206Z,14.78
2023-11-24T19:42:07.150Z,14.75
2023-11-24T19:44:39.295Z,14.76
2023-11-24T19:47:10.318Z,14.75
2023-11-24T19:49:38.746Z,14.76
2023-11-24T19:52:08.709Z,14.75
2023-11-24T19:54:38.987Z,14.76
2023-11-24T19:57:07.148Z,14.78
2023-11-24T19:59:34.903Z,14.78
2023-11-24T20:02:04.165Z,14.79
2023-11-24T20:04:33.779Z,14.81
2023-11-24T20:07:01.883Z,14.79
2023-11-24T20:09:29.738Z,14.82
2023-11-24T20:11:57.789Z,14.81
2023-11-24T20:14:25.620Z,14.85
2023-11-24T20:16:53.510Z,14.93
2023-11-24T20:19:21.330Z,14.99
2023-11-24T20:21:52.063Z,15.08
2023-11-24T20:24:19.800Z,15.14
2023-11-24T20:26:47.633Z,15.24
2023-11-24T20:29:17.123Z,15.28
2023-11-24T20:31:45.977Z,15.36
2023-11-24T20:34:15.164Z,15.40
2023-11-24T20:36:43.259Z,15.45
2023-11-24T20:39:14.855Z,15.50
2023-11-24T20:41:43.498Z,15.52
2023-11-24T20:44:12.050Z,15.54
2023-11-24T20:46:39.819Z,15.57
2023-11-24T20:49:07.892Z,15.58
2023-11-24T20:51:35.653Z,15.60
2023-11-24T20:54:03.511Z,15.59
2023-11-24T20:56:33.532Z,15.57
2023-11-24T20:59:01.210Z,15.58
2023-11-24T21:01:29.147Z,15.56
2023-11-24T21:03:57.325Z,15.54
2023-11-24T21:06:25.563Z,15.52
2023-11-24T21:08:59.249Z,15.50
2023-11-24T21:11:27.849Z,15.47
2023-11-24T21:13:57.098Z,15.47
2023-11-24T21:16:26.650Z,15.46
2023-11-24T21:18:55.225Z,15.45
2023-11-24T21:21:23.275Z,15.42
2023-11-24T21:23:50.935Z,15.43
2023-11-24T21:26:19.175Z,15.41
2023-11-24T21:28:46.837Z,15.41
2023-11-24T21:31:19.715Z,15.39
2023-11-24T21:33:47.916Z,15.36
2023-11-24T21:36:16.864Z,15.36
2023-11-24T21:38:45.046Z,15.35
2023-11-24T21:41:13.264Z,15.31
2023-11-24T21:43:41.515Z,15.30
2023-11-24T21:46:09.423Z,15.29
2023-11-24T21:48:38.433Z,15.28
2023-11-24T21:51:06.233Z,15.25
2023-11-24T21:53:33.964Z,15.25
2023-11-24T21:56:01.621Z,15.24
2023-11-24T21:58:29.859Z,15.24
2023-11-24T22:00:57.615Z,15.26
2023-11-24T22:03:25.403Z,15.25
2023-11-24T22:05:55.062Z,15.23
2023-11-24T22:08:22.716Z,15.20
2023-11-24T22:10:52.559Z,15.16
2023-11-24T22:13:20.562Z,15.12
2023-11-24T22:15:50.215Z,15.07
2023-11-24T22:18:19.881Z,15.07
2023-11-24T22:20:47.680Z,15.08
2023-11-24T22:23:16.762Z,15.06
2023-11-24T22:25:44.499Z,15.05
2023-11-24T22:28:12.270Z,15.04
2023-11-24T22:30:41.169Z,15.01
2023-11-24T22:33:09.688Z,15.04
2023-11-24T22:35:38.182Z,15.01
2023-11-24T22:38:06.998Z,14.98
2023-11-24T22:40:36.174Z,14.97
2023-11-24T22:43:04.623Z,14.96
2023-11-24T22:45:33.126Z,14.95
2023-11-24T22:48:00.943Z,14.93
2023-11-24T22:50:28.627Z,14.91
2023-11-24T22:52:56.374Z,14.89
2023-11-24T22:55:24.106Z,14.88
2023-11-24T22:57:53.190Z,14.85
2023-11-24T23:00:36.119Z,14.80
2023-11-24T23:03:04.753Z,14.81
2023-11-24T23:05:32.871Z,14.79
2023-11-24T23:08:01.044Z,14.78
2023-11-24T23:10:31.699Z,14.77
2023-11-24T23:13:02.822Z,14.74
2023-11-24T23:15:32.353Z,14.73
2023-11-24T23:18:01.146Z,14.73
2023-11-24T23:20:29.266Z,14.71
2023-11-24T23:22:57.003Z,14.68
2023-11-24T23:25:25.177Z,14.68
2023-11-24T23:27:52.889Z,14.64
2023-11-24T23:30:21.996Z,14.63
2023-11-24T23:32:50.036Z,14.61
2023-11-24T23:35:18.655Z,14.56
2023-11-24T23:37:46.484Z,14.58
2023-11-24T23:40:15.669Z,14.56
2023-11-24T23:42:45.724Z,14.56
2023-11-24T23:45:14.845Z,14.51
2023-11-24T23:47:44.090Z,14.51
2023-11-24T23:50:12.071Z,14.46
2023-11-24T23:52:40.044Z,14.48
2023-11-24T23:55:08.448Z,14.50
2023-11-24T23:57:38.249Z,14.45
